Terminal Aerodrome Forecast
Issued by NWS Wilmington, NC

Home | Current Version | Previous Version | Text Only | Print | Product List | Glossary On
Versions: 1 2 3 4 5 6 7 8 9 10 11 12 13 14 15 16 17 18 19
000
FTUS42 KILM 051120
TAFILM
TAF
KILM 051120Z 0512/0612 21008KT P6SM VCSH FEW045 BKN140
     FM051300 26007KT P6SM FEW040 SCT140 BKN250
     FM051900 20009KT P6SM FEW050 SCT140 SCT250=

USA.gov is the U.S. government's official web portal to all federal, state and local government web resources and services.